Terminal Aerodrome Forecast
Issued by NWS Sterling, VA

Current Version | Previous Version | Text Only | Print | Product List | Glossary Off
Versions: 1 2 3 4 5 6 7 8 9 10 11 12 13 14 15 16

000
FTUS41 KLWX 261913 AAA
TAFMRB
TAF AMD
KMRB 261913Z 2619/2718 01009KT P6SM SCT035 OVC090
     FM262300 VRB03KT P6SM BKN025
     FM270100 30004KT 5SM -SHSN OVC015
     FM270500 VRB03KT P6SM OVC015
     FM271500 32008G17KT P6SM BKN035=

USA.gov is the U.S. government's official web portal to all federal, state and local government web resources and services.